INFORMACIÓN METAR y TAF
METAR FOR LEVT
ADDS - METARS form results

(1455 UTC 24 May 2022)
Data provider http://aviationweather.gov/metar/data/
 
METAR text: LEVT 241430Z 33012KT 290V360 9999 SCT030 BKN045 13/07 Q1015
Conditions at: LEVT (VITORIA , ES) observed 1430 UTC 24 May 2022
Temperature: 13.0°C (55°F)
Dewpoint: 7.0°C (45°F) [RH = 67%]
Pressure (altimeter): 29.97 inches Hg (1015.0 mb)
Winds: from the NNW (330 degrees) at 14 MPH (12 knots; 6.2 m/s)
Visibility: 6 or more miles (10+ km)
Ceiling: 4500 feet AGL
Clouds: scattered clouds at 3000 feet AGL
broken clouds at 4500 feet AGL
Weather: no significant weather observed at this time

METAR text: LEVT 241400Z 32009KT 290V350 9999 SCT028 BKN075 13/07 Q1015
Conditions at: LEVT (VITORIA , ES) observed 1400 UTC 24 May 2022
Temperature: 13.0°C (55°F)
Dewpoint: 7.0°C (45°F) [RH = 67%]
Pressure (altimeter): 29.97 inches Hg (1015.0 mb)
Winds: from the NW (320 degrees) at 10 MPH (9 knots; 4.6 m/s)
Visibility: 6 or more miles (10+ km)
Ceiling: 7500 feet AGL
Clouds: scattered clouds at 2800 feet AGL
broken clouds at 7500 feet AGL
Weather: no significant weather observed at this time

Forecast for: LEVT (VITORIA , ES)
Text: TAF LEVT 241100Z 2412/2512 34009KT 9999 FEW020 BKN040 TX14/2415Z TN08/2506Z
Forecast period: 1200 UTC 24 May 2022 to 1200 UTC 25 May 2022
Forecast type: FROM: standard forecast or significant change
Winds: from the NNW (340 degrees) at 10 MPH (9 knots; 4.6 m/s)
Visibility: 6 or more miles (10+ km)
Ceiling: 4000 feet AGL
Clouds: few clouds at 2000 feet AGL
broken clouds at 4000 feet AGL
Weather: no significant weather forecast for this period
Text: PROB30
Forecast period: 1200 UTC 24 May 2022 to 0900 UTC 25 May 2022
Forecast type: TEMPORARY: The following changes expected for less than half the time period
Visibility: 2.49 miles (4.01 km)
Ceiling: at least 12,000 feet AGL
Clouds: few clouds at 2000 feet AGL
Weather: SHRA  (rain showers)

 MAPA DE AEROPUERTO

 INFORMACIÓN DE PISTA
Pista 04 Longitud 11483 ft Ancho 148 ft
Elevación 1651 ft Umbral desplazado 0 ft Rumbo de pista 36
Pista 22 Longitud 11483 ft Ancho 148 ft
Elevación 1682 ft Umbral desplazado 0 ft Rumbo de pista 216

 FRECUANCIAS DEL AEROPUERTO
Tipo GND Nombre GND Frecuencia 121.8 MHZ
Tipo TWR Nombre TWR Frecuencia 118.45 MHZ

 RADIO AYUDAS DEL AEROPUERTO
Tipo VOR-DME Nombre Vitoria Frecuencia 112900 KHZ
Tipo VOR-DME Nombre Vitoria Frecuencia 116600 KHZ




Normativa | Spanair Virtual © 2022 |